createdAt,value
2018-06-17T00:00:35.994Z,18.16
2018-06-17T00:01:36.006Z,18.14
2018-06-17T00:02:36.078Z,18.13
2018-06-17T00:03:36.101Z,18.12
2018-06-17T00:04:36.054Z,18.10
2018-06-17T00:05:36.036Z,18.10
2018-06-17T00:06:36.003Z,18.07
2018-06-17T00:07:36.005Z,18.06
2018-06-17T00:08:36.014Z,18.05
2018-06-17T00:09:36.084Z,18.02
2018-06-17T00:10:36.097Z,18.02
2018-06-17T00:11:36.017Z,17.99
2018-06-17T00:12:36.021Z,17.99
2018-06-17T00:13:36.104Z,18.00
2018-06-17T00:14:36.017Z,17.99
2018-06-17T00:15:36.088Z,17.98
2018-06-17T00:16:36.019Z,17.98
2018-06-17T00:17:36.023Z,17.96
2018-06-17T00:18:35.985Z,17.98
2018-06-17T00:19:36.056Z,17.96
2018-06-17T00:20:36.128Z,17.94
2018-06-17T00:21:36.049Z,17.94
2018-06-17T00:22:36.130Z,17.92
2018-06-17T00:23:36.123Z,17.91
2018-06-17T00:24:36.122Z,17.89
2018-06-17T00:25:36.011Z,17.89
2018-06-17T00:26:36.131Z,17.87
2018-06-17T00:27:36.118Z,17.87
2018-06-17T00:28:36.093Z,17.88
2018-06-17T00:29:36.059Z,17.91
2018-06-17T00:30:36.058Z,17.89
2018-06-17T00:31:36.001Z,17.89
2018-06-17T00:32:36.089Z,17.89
2018-06-17T00:33:36.079Z,17.89
2018-06-17T00:34:36.133Z,17.88
2018-06-17T00:35:36.134Z,17.87
2018-06-17T00:36:36.043Z,17.87
2018-06-17T00:37:36.002Z,17.85
2018-06-17T00:38:36.121Z,17.84
2018-06-17T00:39:36.146Z,17.83
2018-06-17T00:40:36.098Z,17.83
2018-06-17T00:41:36.107Z,17.79
2018-06-17T00:42:36.086Z,17.77
2018-06-17T00:43:36.077Z,17.75
2018-06-17T00:44:36.079Z,17.72
2018-06-17T00:45:36.025Z,17.72
2018-06-17T00:46:36.146Z,17.69
2018-06-17T00:47:36.010Z,17.68
2018-06-17T00:48:35.985Z,17.65
2018-06-17T00:49:36.056Z,17.62
2018-06-17T00:50:36.034Z,17.61
2018-06-17T00:51:36.105Z,17.61
2018-06-17T00:52:36.105Z,17.58
2018-06-17T00:53:36.106Z,17.58
2018-06-17T00:54:36.020Z,17.58
2018-06-17T00:55:36.058Z,17.57
2018-06-17T00:56:36.108Z,17.54
2018-06-17T00:57:36.108Z,17.55
2018-06-17T00:58:36.156Z,17.57
2018-06-17T00:59:36.084Z,17.55
2018-06-17T01:00:36.077Z,17.57
2018-06-17T01:01:36.085Z,17.57
2018-06-17T01:02:36.154Z,17.58
2018-06-17T01:03:36.118Z,17.58
2018-06-17T01:04:36.153Z,17.57
2018-06-17T01:05:36.090Z,17.55
2018-06-17T01:06:36.097Z,17.55
2018-06-17T01:07:36.058Z,17.55
2018-06-17T01:08:36.125Z,17.54
2018-06-17T01:09:36.059Z,17.53
2018-06-17T01:10:36.009Z,17.54
2018-06-17T01:11:36.060Z,17.55
2018-06-17T01:12:36.127Z,17.57
2018-06-17T01:13:36.089Z,17.55
2018-06-17T01:14:36.128Z,17.55
2018-06-17T01:15:36.087Z,17.58
2018-06-17T01:16:36.060Z,17.58
2018-06-17T01:17:36.128Z,17.58
2018-06-17T01:18:36.128Z,17.60
2018-06-17T01:19:36.148Z,17.60
2018-06-17T01:20:36.127Z,17.60
2018-06-17T01:21:36.141Z,17.58
2018-06-17T01:22:36.131Z,17.58
2018-06-17T01:23:36.159Z,17.57
2018-06-17T01:24:36.191Z,17.55
2018-06-17T01:25:36.096Z,17.55
2018-06-17T01:26:36.150Z,17.53
2018-06-17T01:27:36.199Z,17.51
2018-06-17T01:28:36.060Z,17.50
2018-06-17T01:29:36.166Z,17.50
2018-06-17T01:30:36.119Z,17.51
2018-06-17T01:31:36.109Z,17.51
2018-06-17T01:32:36.109Z,17.51
2018-06-17T01:33:36.077Z,17.53
2018-06-17T01:34:36.083Z,17.54
2018-06-17T01:35:36.072Z,17.55
2018-06-17T01:36:36.165Z,17.55
2018-06-17T01:37:36.045Z,17.55
2018-06-17T01:38:36.138Z,17.54
2018-06-17T01:39:36.140Z,17.54
2018-06-17T01:40:36.152Z,17.54
2018-06-17T01:41:36.093Z,17.53
2018-06-17T01:42:36.079Z,17.51
2018-06-17T01:43:36.081Z,17.49
2018-06-17T01:44:36.080Z,17.47
2018-06-17T01:45:36.081Z,17.46
2018-06-17T01:46:36.085Z,17.43
2018-06-17T01:47:36.083Z,17.40
2018-06-17T01:48:36.128Z,17.39
2018-06-17T01:49:36.126Z,17.37
2018-06-17T01:50:36.097Z,17.35
2018-06-17T01:51:36.112Z,17.33
2018-06-17T01:52:36.183Z,17.33
2018-06-17T01:53:36.157Z,17.29
2018-06-17T01:54:36.181Z,17.28
2018-06-17T01:55:36.186Z,17.28
2018-06-17T01:56:36.152Z,17.26
2018-06-17T01:57:36.192Z,17.26
2018-06-17T01:58:36.126Z,17.25
2018-06-17T01:59:36.125Z,17.25
2018-06-17T02:00:36.142Z,17.24
2018-06-17T02:01:36.066Z,17.22
2018-06-17T02:02:36.132Z,17.22
2018-06-17T02:03:36.104Z,17.21
2018-06-17T02:04:36.177Z,17.16
2018-06-17T02:05:36.088Z,17.14
2018-06-17T02:06:36.184Z,17.12
2018-06-17T02:07:36.166Z,17.10
2018-06-17T02:08:36.151Z,17.08
2018-06-17T02:09:36.184Z,17.08
2018-06-17T02:10:36.171Z,17.08
2018-06-17T02:11:36.164Z,17.09
2018-06-17T02:12:36.111Z,17.10
2018-06-17T02:13:36.211Z,17.09
2018-06-17T02:14:36.100Z,17.09
2018-06-17T02:15:36.138Z,17.08
2018-06-17T02:16:36.170Z,17.06
2018-06-17T02:17:36.176Z,17.08
2018-06-17T02:18:36.102Z,17.08
2018-06-17T02:19:36.102Z,17.06
2018-06-17T02:20:36.103Z,17.06
2018-06-17T02:21:36.177Z,17.06
2018-06-17T02:22:36.201Z,17.06
2018-06-17T02:23:36.179Z,17.03
2018-06-17T02:24:36.105Z,17.01
2018-06-17T02:25:36.080Z,17.01
2018-06-17T02:26:36.180Z,17.02
2018-06-17T02:27:36.219Z,17.01
2018-06-17T02:28:36.150Z,16.97
2018-06-17T02:29:36.174Z,16.95
2018-06-17T02:30:36.121Z,16.91
2018-06-17T02:31:36.115Z,16.88
2018-06-17T02:32:36.214Z,16.85
2018-06-17T02:33:36.214Z,16.81
2018-06-17T02:34:36.183Z,16.80
2018-06-17T02:35:36.161Z,16.77
2018-06-17T02:36:36.242Z,16.73
2018-06-17T02:37:36.214Z,16.70
2018-06-17T02:38:36.187Z,16.68
2018-06-17T02:39:36.124Z,16.66
2018-06-17T02:40:36.175Z,16.63
2018-06-17T02:41:36.119Z,16.59
2018-06-17T02:42:36.116Z,16.57
2018-06-17T02:43:36.201Z,16.54
2018-06-17T02:44:36.119Z,16.51
2018-06-17T02:45:36.121Z,16.47
2018-06-17T02:46:36.121Z,16.44
2018-06-17T02:47:36.184Z,16.43
2018-06-17T02:48:36.154Z,16.39
2018-06-17T02:49:36.166Z,16.38
2018-06-17T02:50:36.190Z,16.36
2018-06-17T02:51:36.191Z,16.35
2018-06-17T02:52:36.229Z,16.38
2018-06-17T02:53:36.168Z,16.43
2018-06-17T02:54:36.171Z,16.47
2018-06-17T02:55:36.193Z,16.48
2018-06-17T02:56:36.236Z,16.52
2018-06-17T02:57:36.169Z,16.57
2018-06-17T02:58:36.150Z,16.59
2018-06-17T02:59:36.258Z,16.62
2018-06-17T03:00:36.261Z,16.65
2018-06-17T03:01:36.201Z,16.63
2018-06-17T03:02:36.221Z,16.65
2018-06-17T03:03:36.135Z,16.66
2018-06-17T03:04:36.207Z,16.66
2018-06-17T03:05:36.265Z,16.70
2018-06-17T03:06:36.220Z,16.73
2018-06-17T03:07:36.147Z,16.74
2018-06-17T03:08:36.167Z,16.79
2018-06-17T03:09:36.204Z,16.80
2018-06-17T03:10:36.242Z,16.83
2018-06-17T03:11:36.252Z,16.85
2018-06-17T03:12:36.133Z,16.88
2018-06-17T03:13:36.218Z,16.88
2018-06-17T03:14:36.219Z,16.90
2018-06-17T03:15:36.241Z,16.91
2018-06-17T03:16:36.130Z,16.92
2018-06-17T03:17:36.126Z,16.92
2018-06-17T03:18:36.161Z,16.91
2018-06-17T03:19:36.109Z,16.91
2018-06-17T03:20:36.202Z,16.92
2018-06-17T03:21:36.144Z,16.92
2018-06-17T03:22:36.109Z,16.92
2018-06-17T03:23:36.224Z,16.92
2018-06-17T03:24:36.146Z,16.90
2018-06-17T03:25:36.146Z,16.91
2018-06-17T03:26:36.165Z,16.88
2018-06-17T03:27:36.171Z,16.87
2018-06-17T03:28:36.243Z,16.85
2018-06-17T03:29:36.221Z,16.81
2018-06-17T03:30:36.223Z,16.79
2018-06-17T03:31:36.219Z,16.76
2018-06-17T03:32:36.149Z,16.73
2018-06-17T03:33:36.121Z,16.70
2018-06-17T03:34:36.220Z,16.69
2018-06-17T03:35:36.110Z,16.66
2018-06-17T03:36:36.223Z,16.63
2018-06-17T03:37:36.160Z,16.62
2018-06-17T03:38:36.245Z,16.58
2018-06-17T03:39:36.140Z,16.55
2018-06-17T03:40:36.193Z,16.54
2018-06-17T03:41:36.248Z,16.51
2018-06-17T03:42:36.225Z,16.50
2018-06-17T03:43:36.148Z,16.48
2018-06-17T03:44:36.195Z,16.50
2018-06-17T03:45:36.132Z,16.48
2018-06-17T03:46:36.233Z,16.47
2018-06-17T03:47:36.243Z,16.46
2018-06-17T03:48:36.227Z,16.44
2018-06-17T03:49:36.173Z,16.46
2018-06-17T03:50:36.138Z,16.46
2018-06-17T03:51:36.228Z,16.46
2018-06-17T03:52:36.221Z,16.47
2018-06-17T03:53:36.179Z,16.47
2018-06-17T03:54:36.156Z,16.47
2018-06-17T03:55:36.174Z,16.50
2018-06-17T03:56:36.139Z,16.51
2018-06-17T03:57:36.237Z,16.50
2018-06-17T03:58:36.182Z,16.50
2018-06-17T03:59:36.195Z,16.50
2018-06-17T04:00:36.277Z,16.51
2018-06-17T04:01:36.205Z,16.51
2018-06-17T04:02:36.313Z,16.51
2018-06-17T04:03:36.154Z,16.52
2018-06-17T04:04:36.208Z,16.54
2018-06-17T04:05:36.240Z,16.54
2018-06-17T04:06:36.201Z,16.52
2018-06-17T04:07:36.271Z,16.51
2018-06-17T04:08:36.267Z,16.52
2018-06-17T04:09:36.238Z,16.55
2018-06-17T04:10:36.262Z,16.58
2018-06-17T04:11:36.149Z,16.57
2018-06-17T04:12:36.225Z,16.57
2018-06-17T04:13:36.186Z,16.55
2018-06-17T04:14:36.165Z,16.55
2018-06-17T04:15:36.171Z,16.57
2018-06-17T04:16:36.304Z,16.58
2018-06-17T04:17:36.244Z,16.58
2018-06-17T04:18:36.223Z,16.59
2018-06-17T04:19:36.240Z,16.58
2018-06-17T04:20:36.182Z,16.58
2018-06-17T04:21:36.251Z,16.61
2018-06-17T04:22:36.138Z,16.62
2018-06-17T04:23:36.252Z,16.65
2018-06-17T04:24:36.190Z,16.68
2018-06-17T04:25:36.254Z,16.70
2018-06-17T04:26:36.189Z,16.69
2018-06-17T04:27:36.157Z,16.69
2018-06-17T04:28:36.255Z,16.70
2018-06-17T04:29:36.226Z,16.72
2018-06-17T04:30:36.228Z,16.72
2018-06-17T04:31:36.157Z,16.72
2018-06-17T04:32:36.310Z,16.72
2018-06-17T04:33:36.228Z,16.73
2018-06-17T04:34:36.362Z,16.73
2018-06-17T04:35:36.199Z,16.72
2018-06-17T04:36:36.231Z,16.69
2018-06-17T04:37:36.261Z,16.69
2018-06-17T04:38:36.280Z,16.70
2018-06-17T04:39:36.230Z,16.72
2018-06-17T04:40:36.282Z,16.68
2018-06-17T04:41:36.243Z,16.70
2018-06-17T04:42:36.265Z,16.69
2018-06-17T04:43:36.293Z,16.70
2018-06-17T04:44:36.264Z,16.70
2018-06-17T04:45:36.231Z,16.72
2018-06-17T04:46:36.247Z,16.72
2018-06-17T04:47:36.249Z,16.72
2018-06-17T04:48:36.248Z,16.70
2018-06-17T04:49:36.363Z,16.72
2018-06-17T04:50:36.254Z,16.72
2018-06-17T04:51:36.207Z,16.72
2018-06-17T04:52:36.190Z,16.72
2018-06-17T04:53:36.306Z,16.72
2018-06-17T04:54:36.251Z,16.73
2018-06-17T04:55:36.297Z,16.74
2018-06-17T04:56:36.211Z,16.73
2018-06-17T04:57:36.243Z,16.72
2018-06-17T04:58:36.213Z,16.69
2018-06-17T04:59:36.331Z,16.69
2018-06-17T05:00:36.287Z,16.69
2018-06-17T05:01:36.252Z,16.69
2018-06-17T05:02:36.280Z,16.70
2018-06-17T05:03:36.210Z,16.69
2018-06-17T05:04:36.211Z,16.68
2018-06-17T05:05:36.211Z,16.68
2018-06-17T05:06:36.219Z,16.66
2018-06-17T05:07:36.165Z,16.66
2018-06-17T05:08:36.285Z,16.66
2018-06-17T05:09:36.310Z,16.65
2018-06-17T05:10:36.290Z,16.66
2018-06-17T05:11:36.188Z,16.70
2018-06-17T05:12:36.288Z,16.70
2018-06-17T05:13:36.286Z,16.70
2018-06-17T05:14:36.212Z,16.69
2018-06-17T05:15:36.251Z,16.69
2018-06-17T05:16:36.285Z,16.69
2018-06-17T05:17:36.223Z,16.69
2018-06-17T05:18:36.282Z,16.68
2018-06-17T05:19:36.223Z,16.68
2018-06-17T05:20:36.219Z,16.69
2018-06-17T05:21:36.294Z,16.72
2018-06-17T05:22:36.220Z,16.76
2018-06-17T05:23:36.225Z,16.77
2018-06-17T05:24:36.292Z,16.79
2018-06-17T05:25:36.229Z,16.81
2018-06-17T05:26:36.296Z,16.83
2018-06-17T05:27:36.228Z,16.84
2018-06-17T05:28:36.391Z,16.85
2018-06-17T05:29:36.296Z,16.88
2018-06-17T05:30:36.229Z,16.84
2018-06-17T05:31:36.293Z,16.84
2018-06-17T05:32:36.232Z,16.88
2018-06-17T05:33:36.246Z,16.90
2018-06-17T05:34:36.301Z,16.94
2018-06-17T05:35:36.303Z,16.95
2018-06-17T05:36:36.236Z,16.97
2018-06-17T05:37:36.321Z,16.95
2018-06-17T05:38:36.305Z,16.99
2018-06-17T05:39:36.462Z,17.02
2018-06-17T05:40:36.208Z,17.03
2018-06-17T05:41:36.277Z,17.05
2018-06-17T05:42:36.236Z,17.03
2018-06-17T05:43:36.304Z,17.08
2018-06-17T05:44:36.326Z,17.10
2018-06-17T05:45:36.221Z,17.14
2018-06-17T05:46:36.251Z,17.22
2018-06-17T05:47:36.256Z,17.36
2018-06-17T05:48:36.244Z,17.44
2018-06-17T05:49:36.305Z,17.53
2018-06-17T05:50:36.241Z,17.73
2018-06-17T05:51:36.329Z,17.94
2018-06-17T05:52:36.240Z,18.14
2018-06-17T05:53:36.266Z,18.25
2018-06-17T05:54:36.250Z,18.41
2018-06-17T05:55:36.338Z,18.36
2018-06-17T05:56:36.244Z,18.58
2018-06-17T05:57:36.245Z,18.59
2018-06-17T05:58:36.247Z,18.68
2018-06-17T05:59:36.251Z,18.72
2018-06-17T06:00:36.247Z,18.72
2018-06-17T06:01:36.247Z,18.81
2018-06-17T06:02:36.244Z,18.97
2018-06-17T06:03:36.313Z,19.05
2018-06-17T06:04:36.317Z,19.05
2018-06-17T06:05:36.316Z,18.98
2018-06-17T06:06:36.255Z,18.88
2018-06-17T06:07:36.250Z,18.98
2018-06-17T06:08:36.323Z,18.94
2018-06-17T06:09:36.251Z,19.05
2018-06-17T06:10:36.320Z,19.06
2018-06-17T06:11:36.258Z,18.94
2018-06-17T06:12:36.251Z,18.99
2018-06-17T06:13:36.323Z,19.06
2018-06-17T06:14:36.328Z,19.02
2018-06-17T06:15:36.255Z,19.09
2018-06-17T06:16:36.323Z,19.21
2018-06-17T06:17:36.267Z,19.31
2018-06-17T06:18:36.258Z,19.39
2018-06-17T06:19:36.282Z,19.62
2018-06-17T06:20:36.306Z,19.72
2018-06-17T06:21:36.328Z,19.77
2018-06-17T06:22:36.376Z,19.74
2018-06-17T06:23:36.362Z,19.81
2018-06-17T06:24:36.317Z,19.83
2018-06-17T06:25:36.290Z,19.83
2018-06-17T06:26:36.299Z,19.81
2018-06-17T06:27:36.306Z,19.80
2018-06-17T06:28:36.228Z,19.94
2018-06-17T06:29:36.230Z,19.98
2018-06-17T06:30:36.268Z,19.96
2018-06-17T06:31:36.313Z,19.80
2018-06-17T06:32:36.198Z,19.76
2018-06-17T06:33:36.223Z,19.66
2018-06-17T06:34:36.263Z,19.65
2018-06-17T06:35:36.295Z,19.57
2018-06-17T06:36:36.317Z,19.64
2018-06-17T06:37:36.288Z,19.76
2018-06-17T06:38:36.290Z,19.91
2018-06-17T06:39:36.259Z,20.01
2018-06-17T06:40:36.310Z,20.01
2018-06-17T06:41:36.315Z,19.88
2018-06-17T06:42:36.379Z,19.94
2018-06-17T06:43:36.353Z,19.99
2018-06-17T06:44:36.241Z,19.91
2018-06-17T06:45:36.333Z,19.79
2018-06-17T06:46:36.243Z,19.66
2018-06-17T06:47:36.365Z,19.81
2018-06-17T06:48:36.382Z,19.95
2018-06-17T06:49:36.385Z,19.92
2018-06-17T06:50:36.247Z,19.81
2018-06-17T06:51:36.277Z,19.90
2018-06-17T06:52:36.372Z,19.98
2018-06-17T06:53:36.387Z,19.90
2018-06-17T06:54:36.305Z,19.83
2018-06-17T06:55:36.326Z,19.81
2018-06-17T06:56:36.377Z,19.68
2018-06-17T06:57:36.327Z,19.72
2018-06-17T06:58:36.250Z,19.77
2018-06-17T06:59:36.276Z,19.84
2018-06-17T07:00:36.249Z,19.80
2018-06-17T07:01:36.309Z,19.84
2018-06-17T07:02:36.376Z,19.61
2018-06-17T07:03:36.386Z,19.73
2018-06-17T07:04:36.355Z,19.94
2018-06-17T07:05:36.326Z,20.12
2018-06-17T07:06:36.264Z,20.23
2018-06-17T07:07:36.264Z,20.20
2018-06-17T07:08:36.381Z,20.23
2018-06-17T07:09:36.357Z,20.27
2018-06-17T07:10:36.359Z,20.32
2018-06-17T07:11:36.291Z,20.24
2018-06-17T07:12:36.364Z,20.10
2018-06-17T07:13:36.293Z,20.23
2018-06-17T07:14:36.296Z,20.35
2018-06-17T07:15:36.365Z,20.35
2018-06-17T07:16:36.291Z,20.24
2018-06-17T07:17:36.363Z,20.39
2018-06-17T07:18:36.301Z,20.38
2018-06-17T07:19:36.403Z,20.50
2018-06-17T07:20:36.367Z,20.53
2018-06-17T07:21:36.295Z,20.46
2018-06-17T07:22:36.366Z,20.46
2018-06-17T07:23:36.299Z,20.38
2018-06-17T07:24:36.367Z,20.30
2018-06-17T07:25:36.303Z,20.24
2018-06-17T07:26:36.375Z,20.24
2018-06-17T07:27:36.301Z,20.20
2018-06-17T07:28:36.368Z,20.12
2018-06-17T07:29:36.278Z,20.02
2018-06-17T07:30:36.363Z,20.21
2018-06-17T07:31:36.371Z,20.47
2018-06-17T07:32:36.311Z,20.61
2018-06-17T07:33:36.359Z,20.61
2018-06-17T07:34:36.373Z,20.20
2018-06-17T07:35:36.281Z,20.10
2018-06-17T07:36:36.371Z,20.01
2018-06-17T07:37:36.285Z,19.90
2018-06-17T07:38:36.289Z,19.90
2018-06-17T07:39:36.247Z,20.13
2018-06-17T07:40:36.368Z,20.43
2018-06-17T07:41:36.363Z,20.52
2018-06-17T07:42:36.369Z,20.82
2018-06-17T07:43:36.284Z,20.90
2018-06-17T07:44:36.353Z,21.10
2018-06-17T07:45:36.285Z,21.24
2018-06-17T07:46:36.252Z,21.32
2018-06-17T07:47:36.249Z,21.16
2018-06-17T07:48:36.370Z,20.94
2018-06-17T07:49:36.311Z,20.75
2018-06-17T07:50:36.330Z,20.73
2018-06-17T07:51:36.287Z,20.65
2018-06-17T07:52:36.390Z,20.47
2018-06-17T07:53:36.339Z,20.45
2018-06-17T07:54:36.352Z,20.39
2018-06-17T07:55:36.418Z,20.28
2018-06-17T07:56:36.327Z,20.42
2018-06-17T07:57:36.412Z,20.49
2018-06-17T07:58:36.299Z,20.68
2018-06-17T07:59:36.397Z,20.69
2018-06-17T08:00:36.431Z,20.64
2018-06-17T08:01:36.351Z,20.75
2018-06-17T08:02:36.358Z,20.95
2018-06-17T08:03:36.404Z,21.09
2018-06-17T08:04:36.347Z,21.36
2018-06-17T08:05:36.334Z,21.50
2018-06-17T08:06:36.390Z,21.38
2018-06-17T08:07:36.337Z,21.22
2018-06-17T08:08:36.440Z,21.31
2018-06-17T08:09:36.337Z,21.35
2018-06-17T08:10:36.403Z,21.39
2018-06-17T08:11:36.402Z,21.57
2018-06-17T08:12:36.402Z,21.68
2018-06-17T08:13:36.338Z,21.72
2018-06-17T08:14:36.334Z,21.64
2018-06-17T08:15:36.403Z,21.57
2018-06-17T08:16:36.410Z,21.54
2018-06-17T08:17:36.343Z,21.54
2018-06-17T08:18:36.337Z,21.73
2018-06-17T08:19:36.426Z,21.82
2018-06-17T08:20:36.444Z,21.87
2018-06-17T08:21:36.378Z,21.83
2018-06-17T08:22:36.373Z,21.54
2018-06-17T08:23:36.430Z,21.45
2018-06-17T08:24:36.368Z,21.25
2018-06-17T08:25:36.405Z,21.04
2018-06-17T08:26:36.317Z,20.99
2018-06-17T08:27:36.368Z,20.95
2018-06-17T08:28:36.370Z,20.88
2018-06-17T08:29:36.366Z,20.98
2018-06-17T08:30:36.404Z,20.90
2018-06-17T08:31:36.395Z,20.93
2018-06-17T08:32:36.397Z,20.99
2018-06-17T08:33:36.319Z,21.08
2018-06-17T08:34:36.304Z,21.22
2018-06-17T08:35:36.349Z,21.36
2018-06-17T08:36:36.407Z,21.72
2018-06-17T08:37:36.283Z,22.02
2018-06-17T08:38:36.350Z,22.38
2018-06-17T08:39:36.479Z,22.48
2018-06-17T08:40:36.456Z,22.46
2018-06-17T08:41:36.447Z,22.42
2018-06-17T08:42:36.375Z,22.20
2018-06-17T08:43:36.558Z,22.27
2018-06-17T08:44:36.424Z,22.23
2018-06-17T08:45:36.320Z,22.28
2018-06-17T08:46:36.391Z,22.24
2018-06-17T08:47:36.424Z,22.25
2018-06-17T08:48:36.403Z,22.38
2018-06-17T08:49:36.332Z,22.70
2018-06-17T08:50:36.423Z,22.83
2018-06-17T08:51:36.365Z,22.87
2018-06-17T08:52:36.332Z,22.75
2018-06-17T08:53:36.371Z,22.56
2018-06-17T08:54:36.368Z,22.46
2018-06-17T08:55:36.412Z,22.45
2018-06-17T08:56:36.420Z,22.36
2018-06-17T08:57:36.422Z,22.34
2018-06-17T08:58:36.349Z,22.60
2018-06-17T08:59:36.459Z,22.83
2018-06-17T09:00:36.471Z,22.95
2018-06-17T09:01:36.435Z,22.72
2018-06-17T09:02:36.338Z,22.53
2018-06-17T09:03:36.465Z,22.19
2018-06-17T09:04:36.353Z,21.94
2018-06-17T09:05:36.356Z,21.68
2018-06-17T09:06:36.456Z,21.57
2018-06-17T09:07:36.390Z,21.43
2018-06-17T09:08:36.439Z,21.34
2018-06-17T09:09:36.471Z,21.09
2018-06-17T09:10:36.423Z,21.10
2018-06-17T09:11:36.342Z,21.09
2018-06-17T09:12:36.374Z,21.28
2018-06-17T09:13:36.375Z,21.56
2018-06-17T09:14:36.395Z,21.86
2018-06-17T09:15:36.343Z,21.94
2018-06-17T09:16:36.314Z,22.08
2018-06-17T09:17:36.345Z,22.12
2018-06-17T09:18:36.434Z,22.09
2018-06-17T09:19:36.436Z,21.80
2018-06-17T09:20:36.402Z,21.79
2018-06-17T09:21:36.481Z,21.75
2018-06-17T09:22:36.446Z,21.86
2018-06-17T09:23:36.357Z,21.71
2018-06-17T09:24:36.491Z,21.72
2018-06-17T09:25:36.446Z,21.67
2018-06-17T09:26:36.350Z,21.78
2018-06-17T09:27:36.486Z,21.82
2018-06-17T09:28:36.487Z,21.94
2018-06-17T09:29:36.424Z,21.96
2018-06-17T09:30:36.359Z,22.02
2018-06-17T09:31:36.489Z,22.32
2018-06-17T09:32:36.440Z,22.60
2018-06-17T09:33:36.437Z,22.77
2018-06-17T09:34:36.324Z,22.83
2018-06-17T09:35:36.443Z,22.82
2018-06-17T09:36:36.439Z,22.88
2018-06-17T09:37:36.658Z,22.83
2018-06-17T09:38:36.390Z,22.72
2018-06-17T09:39:36.327Z,22.80
2018-06-17T09:40:36.490Z,22.88
2018-06-17T09:41:36.431Z,22.86
2018-06-17T09:42:36.457Z,22.97
2018-06-17T09:43:36.496Z,23.02
2018-06-17T09:44:36.432Z,23.16
2018-06-17T09:45:36.431Z,23.22
2018-06-17T09:46:36.442Z,23.24
2018-06-17T09:47:36.501Z,23.27
2018-06-17T09:48:36.508Z,23.19
2018-06-17T09:49:36.387Z,23.05
2018-06-17T09:50:36.429Z,22.75
2018-06-17T09:51:36.369Z,22.79
2018-06-17T09:52:36.484Z,22.59
2018-06-17T09:53:36.492Z,22.38
2018-06-17T09:54:36.458Z,22.16
2018-06-17T09:55:36.464Z,22.09
2018-06-17T09:56:36.499Z,22.01
2018-06-17T09:57:36.453Z,21.94
2018-06-17T09:58:36.506Z,21.86
2018-06-17T09:59:36.513Z,21.79
2018-06-17T10:00:36.372Z,21.58
2018-06-17T10:01:36.488Z,21.32
2018-06-17T10:02:36.324Z,21.27
2018-06-17T10:03:36.370Z,21.14
2018-06-17T10:04:36.364Z,21.17
2018-06-17T10:05:36.368Z,21.21
2018-06-17T10:06:36.332Z,21.21
2018-06-17T10:07:36.422Z,21.31
2018-06-17T10:08:36.339Z,21.45
2018-06-17T10:09:36.454Z,21.69
2018-06-17T10:10:36.409Z,22.08
2018-06-17T10:11:36.478Z,22.42
2018-06-17T10:12:36.477Z,22.48
2018-06-17T10:13:36.418Z,22.34
2018-06-17T10:14:36.484Z,22.24
2018-06-17T10:15:36.483Z,22.01
2018-06-17T10:16:36.417Z,21.96
2018-06-17T10:17:36.420Z,21.82
2018-06-17T10:18:36.490Z,21.79
2018-06-17T10:19:36.485Z,21.67
2018-06-17T10:20:36.509Z,21.57
2018-06-17T10:21:36.385Z,21.57
2018-06-17T10:22:36.535Z,21.49
2018-06-17T10:23:36.462Z,21.51
2018-06-17T10:24:36.459Z,21.54
2018-06-17T10:25:36.467Z,21.60
2018-06-17T10:26:36.460Z,21.53
2018-06-17T10:27:36.517Z,21.67
2018-06-17T10:28:36.467Z,21.79
2018-06-17T10:29:36.537Z,21.93
2018-06-17T10:30:36.400Z,22.13
2018-06-17T10:31:36.391Z,22.24
2018-06-17T10:32:36.402Z,22.36
2018-06-17T10:33:36.446Z,22.46
2018-06-17T10:34:36.481Z,22.46
2018-06-17T10:35:36.404Z,22.50
2018-06-17T10:36:36.400Z,22.43
2018-06-17T10:37:36.395Z,22.50
2018-06-17T10:38:36.406Z,22.49
2018-06-17T10:39:36.517Z,22.43
2018-06-17T10:40:36.535Z,22.48
2018-06-17T10:41:36.401Z,22.41
2018-06-17T10:42:36.478Z,22.46
2018-06-17T10:43:36.541Z,22.43
2018-06-17T10:44:36.526Z,22.53
2018-06-17T10:45:36.471Z,22.65
2018-06-17T10:46:36.406Z,22.52
2018-06-17T10:47:36.421Z,22.46
2018-06-17T10:48:36.550Z,22.38
2018-06-17T10:49:36.530Z,22.30
2018-06-17T10:50:36.615Z,22.10
2018-06-17T10:51:36.482Z,22.12
2018-06-17T10:52:36.536Z,22.06
2018-06-17T10:53:36.430Z,22.10
2018-06-17T10:54:36.502Z,21.93
2018-06-17T10:55:36.580Z,21.89
2018-06-17T10:56:36.508Z,21.90
2018-06-17T10:57:36.479Z,21.98
2018-06-17T10:58:36.478Z,22.02
2018-06-17T10:59:36.478Z,21.93
2018-06-17T11:00:36.417Z,21.90
2018-06-17T11:01:36.489Z,21.90
2018-06-17T11:02:36.473Z,21.80
2018-06-17T11:03:36.515Z,21.84
2018-06-17T11:04:36.543Z,21.89
2018-06-17T11:05:36.475Z,21.87
2018-06-17T11:06:36.484Z,21.89
2018-06-17T11:07:36.540Z,21.97
2018-06-17T11:08:36.510Z,22.10
2018-06-17T11:09:36.423Z,22.25
2018-06-17T11:10:36.385Z,22.32
2018-06-17T11:11:36.502Z,22.41
2018-06-17T11:12:36.451Z,22.48
2018-06-17T11:13:36.391Z,22.70
2018-06-17T11:14:36.453Z,22.91
2018-06-17T11:15:36.519Z,22.94
2018-06-17T11:16:36.426Z,22.98
2018-06-17T11:17:36.423Z,23.17
2018-06-17T11:18:36.509Z,23.50
2018-06-17T11:19:36.491Z,23.64
2018-06-17T11:20:36.508Z,23.67
2018-06-17T11:21:36.479Z,23.71
2018-06-17T11:22:36.475Z,23.44
2018-06-17T11:23:36.502Z,23.44
2018-06-17T11:24:36.391Z,23.38
2018-06-17T11:25:36.400Z,23.33
2018-06-17T11:26:36.395Z,23.38
2018-06-17T11:27:36.460Z,23.20
2018-06-17T11:28:36.399Z,23.37
2018-06-17T11:29:36.464Z,23.37
2018-06-17T11:30:36.433Z,23.38
2018-06-17T11:31:36.588Z,23.30
2018-06-17T11:32:36.569Z,23.15
2018-06-17T11:33:36.533Z,23.09
2018-06-17T11:34:36.559Z,23.13
2018-06-17T11:35:36.556Z,23.05
2018-06-17T11:36:36.535Z,22.98
2018-06-17T11:37:36.565Z,23.04
2018-06-17T11:38:36.437Z,23.09
2018-06-17T11:39:36.443Z,23.05
2018-06-17T11:40:36.522Z,22.87
2018-06-17T11:41:36.530Z,22.98
2018-06-17T11:42:36.488Z,22.88
2018-06-17T11:43:36.467Z,22.79
2018-06-17T11:44:36.541Z,22.64
2018-06-17T11:45:36.496Z,22.63
2018-06-17T11:46:36.477Z,22.71
2018-06-17T11:47:36.467Z,22.54
2018-06-17T11:48:36.478Z,22.41
2018-06-17T11:49:36.475Z,22.25
2018-06-17T11:50:36.496Z,22.14
2018-06-17T11:51:36.412Z,22.02
2018-06-17T11:52:36.532Z,21.96
2018-06-17T11:53:36.455Z,21.93
2018-06-17T11:54:36.469Z,22.00
2018-06-17T11:55:36.502Z,22.00
2018-06-17T11:56:36.540Z,22.14
2018-06-17T11:57:36.541Z,22.27
2018-06-17T11:58:36.535Z,22.49
2018-06-17T11:59:36.460Z,22.76
2018-06-17T12:00:36.484Z,22.97
2018-06-17T12:01:36.482Z,23.00
2018-06-17T12:02:36.553Z,23.12
2018-06-17T12:03:36.486Z,23.45
2018-06-17T12:04:36.488Z,23.68
2018-06-17T12:05:36.649Z,24.00
2018-06-17T12:06:36.490Z,23.86
2018-06-17T12:07:36.534Z,23.80
2018-06-17T12:08:36.490Z,23.80
2018-06-17T12:09:36.506Z,23.68
2018-06-17T12:10:36.557Z,23.86
2018-06-17T12:11:36.560Z,23.76
2018-06-17T12:12:36.493Z,23.90
2018-06-17T12:13:36.559Z,23.94
2018-06-17T12:14:36.561Z,23.87
2018-06-17T12:15:36.563Z,23.85
2018-06-17T12:16:36.495Z,23.60
2018-06-17T12:17:36.600Z,23.49
2018-06-17T12:18:36.565Z,23.42
2018-06-17T12:19:36.563Z,23.57
2018-06-17T12:20:36.519Z,23.54
2018-06-17T12:21:36.585Z,23.44
2018-06-17T12:22:36.525Z,23.20
2018-06-17T12:23:36.606Z,23.12
2018-06-17T12:24:36.596Z,23.20
2018-06-17T12:25:36.488Z,23.34
2018-06-17T12:26:36.573Z,23.42
2018-06-17T12:27:36.593Z,23.35
2018-06-17T12:28:36.568Z,23.27
2018-06-17T12:29:36.594Z,23.27
2018-06-17T12:30:36.527Z,23.13
2018-06-17T12:31:36.549Z,23.13
2018-06-17T12:32:36.573Z,23.11
2018-06-17T12:33:36.529Z,23.00
2018-06-17T12:34:36.548Z,22.94
2018-06-17T12:35:36.550Z,23.00
2018-06-17T12:36:36.551Z,22.98
2018-06-17T12:37:36.604Z,22.93
2018-06-17T12:38:36.595Z,22.94
2018-06-17T12:39:36.618Z,22.87
2018-06-17T12:40:36.507Z,22.91
2018-06-17T12:41:36.578Z,22.95
2018-06-17T12:42:36.513Z,22.80
2018-06-17T12:43:36.513Z,22.67
2018-06-17T12:44:36.570Z,22.63
2018-06-17T12:45:36.619Z,22.54
2018-06-17T12:46:36.580Z,22.49
2018-06-17T12:47:36.516Z,22.39
2018-06-17T12:48:36.518Z,22.34
2018-06-17T12:49:36.585Z,22.32
2018-06-17T12:50:36.669Z,22.30
2018-06-17T12:51:36.507Z,22.23
2018-06-17T12:52:36.599Z,22.24